Airfield :
LOGIN :

Register | Disclaimer

   EN    FR    IT 

 










Legend :    VFR   Marginal VFR   IFR   Intensive IFR   Very Intensive IFR
Visi :
Ceiling :
>= 8 km
>= 3000ft
5 to 8 km
1000 to 3000 ft
1500m to 5 km
500 to 1000 ft
800 to 1500m
200 to 500 ft
< 800m
< 200 ft
Symbols :   Thunderstorms  Fog  Heavy snow  Heavy precipitations  Wind > 20 kt
SIGMETs :     Misc.  Thunderstorms  Icing  Turbulence  Mountain Waves  Volcanic Ashes






- Airport Elevation : 72 ft
- IATA code : UDE


EHVK - Volkel Airbase

CURRENT METAR :
  • 021555Z AUTO 14006KT 9999 NCD 15/04 Q1028 BLU

EXPIRED METARs :
  • 021527Z AUTO 12006KT 090V150 9999 NCD 15/04 Q1029 BLU
  • 021455Z AUTO 13007KT 090V150 9999 NCD 15/04 Q1029 BLU NOSIG
  • 021425Z AUTO 12006KT 090V160 9999 NCD 15/05 Q1029 BLU NOSIG
  • 021355Z AUTO 11007KT 080V140 9999 NCD 14/05 Q1029 BLU NOSIG
  • 021334Z AUTO 11006KT 070V150 9999 NCD 14/05 Q1029 BLU NOSIG
  • 021325Z AUTO 10007KT 090V160 9999 NCD 14/05 Q1029 BLU NOSIG
  • 021314Z AUTO 12006KT 090V160 9999 NCD 14/05 Q1029 BLU NOSIG

TAF TAF EHVK
Valid from the 02 at 14:00 until the 03 at 02:00 UTC


021344Z 0214/0302 06009KT 7000 NSC
BECMG 0220/0223 18004KT
TEMPO 0222/0309 4500 BR
PROB30
TEMPO 0300/0302 2000 BR MIFG



MET'MAP, your aeronautical weather chart ! - Copyright ORBIFLY December 2007 - Disclaimer

ORBIFLY MET'MAP TEAM :

Programming & Development : Alexandra Zaïnal
Concept & original design : Baudouin d'Aumeries
Assistance for programming : Marc-Olivier Méhu
Technical & hardware support : Manuel Goepfert

Contact : metmap@orbifly.com




SOURCES & CREDITS :

   NOAA